Time;durP1;ratioP1;P1;durP2;ratioP2;P2;SDS_P1;SDS_P2;PMS_P1;PMS_P2;Temp;Humidity;BMP_temperature;BMP_pressure;BME280_temperature;BME280_humidity;BME280_pressure;Samples;Min_cycle;Max_cycle;Signal;HPM_P1;HPM_P2
2022/06/21 00:02:05;;;;;;;3.50;1.10;;;;;;;12.98;100.00;101356.28;6197483;28;20051;-73
2022/06/21 00:05:14;;;;;;;1.83;0.70;;;;;;;12.82;100.00;101353.63;6197009;28;20046;-73
2022/06/21 00:08:18;;;;;;;2.00;0.75;;;;;;;12.82;100.00;101352.78;6197595;28;20529;-73
2022/06/21 00:11:24;;;;;;;4.10;0.88;;;;;;;12.82;100.00;101351.00;6196998;28;20046;-73
2022/06/21 00:14:25;;;;;;;2.60;0.82;;;;;;;12.80;100.00;101358.13;6197171;28;20441;-73
2022/06/21 00:17:26;;;;;;;1.20;0.70;;;;;;;12.76;100.00;101356.56;6197159;28;20054;-73
2022/06/21 00:20:29;;;;;;;1.58;0.82;;;;;;;12.72;100.00;101356.81;6196873;28;20058;-73
2022/06/21 00:23:32;;;;;;;0.95;0.68;;;;;;;12.67;100.00;101363.22;6197271;28;20058;-74
2022/06/21 00:26:33;;;;;;;2.42;0.90;;;;;;;12.58;100.00;101355.78;6197179;28;20057;-73
2022/06/21 00:29:35;;;;;;;2.28;0.65;;;;;;;12.62;100.00;101364.34;6197124;28;20506;-73
2022/06/21 00:32:37;;;;;;;2.10;0.93;;;;;;;12.55;100.00;101363.00;6196468;28;20050;-73
2022/06/21 00:35:41;;;;;;;6.60;1.10;;;;;;;12.50;100.00;101365.00;6196766;28;20054;-73
2022/06/21 00:38:43;;;;;;;5.47;1.00;;;;;;;12.40;100.00;101365.50;6197202;28;20050;-73
2022/06/21 00:41:48;;;;;;;2.83;1.08;;;;;;;12.32;100.00;101367.66;6196695;28;20046;-73
2022/06/21 00:45:02;;;;;;;3.70;0.93;;;;;;;12.36;100.00;101366.56;6196836;28;20054;-73
2022/06/21 00:48:12;;;;;;;3.58;1.20;;;;;;;12.37;100.00;101363.00;6197173;28;20050;-73
2022/06/21 00:51:23;;;;;;;1.88;0.93;;;;;;;12.47;100.00;101367.78;6196586;28;20054;-73
2022/06/21 00:54:29;;;;;;;4.13;0.90;;;;;;;12.47;100.00;101357.25;6196664;28;20051;-73
2022/06/21 00:57:40;;;;;;;4.30;1.08;;;;;;;12.43;100.00;101362.66;6197313;28;20057;-73
2022/06/21 01:00:53;;;;;;;1.60;0.95;;;;;;;12.34;100.00;101347.31;6196817;28;20050;-73
2022/06/21 01:03:59;;;;;;;4.93;1.77;;;;;;;12.32;100.00;101343.09;6196841;28;20054;-74
2022/06/21 01:07:06;;;;;;;1.67;0.77;;;;;;;12.29;100.00;101351.13;6196977;28;20053;-73
2022/06/21 01:10:13;;;;;;;3.08;1.08;;;;;;;12.26;100.00;101362.66;6196644;28;20050;-73
2022/06/21 01:13:17;;;;;;;5.32;1.10;;;;;;;12.25;100.00;101365.41;6200192;28;20062;-73
2022/06/21 01:16:20;;;;;;;2.15;0.85;;;;;;;12.19;100.00;101367.41;6200681;28;20047;-73
2022/06/21 01:19:35;;;;;;;3.80;0.88;;;;;;;12.14;100.00;101352.78;6201072;28;20053;-73
2022/06/21 01:22:47;;;;;;;3.45;1.05;;;;;;;12.13;100.00;101346.66;6200399;28;20054;-73
2022/06/21 01:25:56;;;;;;;2.60;1.00;;;;;;;12.09;100.00;101342.47;6200493;28;20399;-73
2022/06/21 01:28:59;;;;;;;1.23;0.82;;;;;;;12.00;100.00;101328.91;6200762;28;20050;-74
2022/06/21 01:32:05;;;;;;;4.88;1.00;;;;;;;11.89;100.00;101340.78;6200424;28;20056;-73
2022/06/21 01:35:10;;;;;;;1.77;1.15;;;;;;;11.83;100.00;101335.84;6200436;28;20058;-73
2022/06/21 01:38:17;;;;;;;1.02;0.63;;;;;;;11.81;100.00;101315.72;6200443;28;20047;-72
2022/06/21 01:41:21;;;;;;;1.85;0.93;;;;;;;11.77;100.00;101306.31;6200493;28;20057;-73
2022/06/21 01:44:30;;;;;;;1.75;0.85;;;;;;;11.71;100.00;101304.81;6200038;28;20050;-73
2022/06/21 01:47:42;;;;;;;0.90;0.80;;;;;;;11.57;100.00;101315.16;6200468;28;20277;-73
2022/06/21 01:50:45;;;;;;;1.13;1.10;;;;;;;11.53;100.00;101308.34;6199581;28;20525;-73
2022/06/21 01:53:46;;;;;;;3.70;0.98;;;;;;;11.46;100.00;101313.06;6200144;28;20058;-72
2022/06/21 01:56:49;;;;;;;1.60;0.98;;;;;;;11.45;100.00;101329.78;6200032;28;20054;-72
2022/06/21 01:59:52;;;;;;;1.05;0.90;;;;;;;11.42;100.00;101328.13;6199807;28;20052;-73
2022/06/21 02:02:58;;;;;;;1.80;0.95;;;;;;;11.50;100.00;101322.50;6200231;28;20054;-72
2022/06/21 02:06:03;;;;;;;2.55;1.73;;;;;;;11.58;100.00;101324.75;6199565;28;20053;-73
2022/06/21 02:09:09;;;;;;;3.88;1.38;;;;;;;11.61;100.00;101321.97;6199908;28;20054;-73
2022/06/21 02:12:13;;;;;;;3.17;0.80;;;;;;;11.60;100.00;101338.72;6199353;28;20054;-72
2022/06/21 02:15:26;;;;;;;0.85;0.85;;;;;;;11.58;100.00;101335.28;6199348;28;20454;-72
2022/06/21 02:18:31;;;;;;;3.60;1.42;;;;;;;11.57;100.00;101334.44;6199518;28;20094;-73
2022/06/21 02:21:40;;;;;;;1.38;1.10;;;;;;;11.53;100.00;101330.25;6199099;28;20057;-73
2022/06/21 02:24:43;;;;;;;0.60;0.60;;;;;;;11.44;100.00;101322.78;6198952;28;20054;-73
2022/06/21 02:27:44;;;;;;;2.72;1.30;;;;;;;11.36;100.00;101323.16;6199460;28;20050;-73
2022/06/21 02:30:48;;;;;;;4.18;1.23;;;;;;;11.36;100.00;101325.81;6239205;22;20565;-77
2022/06/21 02:33:51;;;;;;;2.78;0.68;;;;;;;11.31;100.00;101333.06;6216139;28;20061;-77
2022/06/21 02:36:57;;;;;;;3.90;0.93;;;;;;;11.21;100.00;101328.28;6199504;28;20403;-77
2022/06/21 02:40:01;;;;;;;1.80;1.20;;;;;;;11.13;100.00;101324.25;6222330;28;20046;-77
2022/06/21 02:43:06;;;;;;;1.67;1.02;;;;;;;11.12;100.00;101326.94;6223976;28;20401;-77
2022/06/21 02:46:11;;;;;;;1.25;0.98;;;;;;;11.07;100.00;101324.50;6223756;28;20049;-77
2022/06/21 02:49:18;;;;;;;4.03;1.20;;;;;;;11.00;100.00;101333.63;6223780;28;20050;-76
2022/06/21 02:52:26;;;;;;;3.10;1.27;;;;;;;10.96;100.00;101336.47;6219867;28;20054;-77
2022/06/21 02:55:36;;;;;;;6.00;1.67;;;;;;;10.90;100.00;101337.56;6223301;28;20100;-77
2022/06/21 02:58:40;;;;;;;6.05;1.35;;;;;;;10.86;100.00;101336.03;6223471;28;20387;-76
2022/06/21 03:01:47;;;;;;;4.65;1.42;;;;;;;10.81;100.00;101336.25;6207448;28;20433;-77
2022/06/21 03:04:51;;;;;;;6.05;1.63;;;;;;;10.81;100.00;101340.63;6199120;28;20050;-77
2022/06/21 03:07:56;;;;;;;1.80;1.15;;;;;;;10.79;100.00;101337.22;6199387;28;20053;-77
2022/06/21 03:10:57;;;;;;;4.45;1.30;;;;;;;10.85;100.00;101331.66;6199033;28;20061;-77
2022/06/21 03:14:02;;;;;;;3.45;1.35;;;;;;;10.83;100.00;101328.28;6198693;28;20660;-77
2022/06/21 03:17:08;;;;;;;1.08;0.98;;;;;;;10.78;100.00;101332.88;6198585;28;20046;-77
2022/06/21 03:20:14;;;;;;;3.45;1.30;;;;;;;10.82;100.00;101326.56;6198353;28;20058;-76
2022/06/21 03:23:17;;;;;;;8.23;2.50;;;;;;;10.83;100.00;101336.16;6210181;28;20103;-76
2022/06/21 03:26:18;;;;;;;2.72;1.60;;;;;;;10.83;100.00;101326.50;6218759;28;20405;-78
2022/06/21 03:29:20;;;;;;;1.73;1.27;;;;;;;10.83;100.00;101333.53;6221663;28;20046;-76
2022/06/21 03:32:23;;;;;;;3.47;1.40;;;;;;;10.85;100.00;101336.94;6208372;28;20046;-77
2022/06/21 03:35:25;;;;;;;1.83;1.27;;;;;;;10.85;100.00;101327.25;6208500;28;20061;-77
2022/06/21 03:38:28;;;;;;;3.53;1.42;;;;;;;10.92;100.00;101330.47;6210951;28;20046;-77
2022/06/21 03:41:44;;;;;;;1.20;1.10;;;;;;;10.92;100.00;101327.84;6209146;28;20046;-77
2022/06/21 03:44:49;;;;;;;1.17;1.00;;;;;;;10.93;100.00;101324.28;6208721;28;20046;-76
2022/06/21 03:47:59;;;;;;;1.52;1.27;;;;;;;10.90;100.00;101330.56;6208471;28;20522;-77
2022/06/21 03:51:07;;;;;;;5.75;1.75;;;;;;;10.89;100.00;101339.34;6209187;28;20073;-76
2022/06/21 03:54:11;;;;;;;3.55;1.42;;;;;;;10.90;100.00;101338.44;6198060;28;20053;-76
2022/06/21 03:57:16;;;;;;;3.20;1.17;;;;;;;10.91;100.00;101336.69;6198480;28;20047;-78
2022/06/21 04:00:19;;;;;;;3.60;1.48;;;;;;;10.81;100.00;101336.25;6198027;28;20051;-77
2022/06/21 04:03:27;;;;;;;5.97;1.70;;;;;;;10.82;100.00;101352.88;6198589;28;20245;-76
2022/06/21 04:06:35;;;;;;;2.05;1.48;;;;;;;10.74;100.00;101349.72;6197866;28;20057;-77
2022/06/21 04:09:43;;;;;;;1.83;1.40;;;;;;;10.78;100.00;101338.16;6198083;28;20053;-76
2022/06/21 04:12:50;;;;;;;5.30;1.90;;;;;;;10.71;100.00;101336.69;6197674;28;20509;-76
2022/06/21 04:15:58;;;;;;;2.70;1.60;;;;;;;10.71;100.00;101332.28;6197728;28;20046;-76
2022/06/21 04:19:07;;;;;;;1.58;1.48;;;;;;;10.72;100.00;101335.75;6197757;28;20060;-76
2022/06/21 04:22:13;;;;;;;8.90;2.08;;;;;;;10.78;100.00;101332.88;6198685;28;20046;-76
2022/06/21 04:25:19;;;;;;;2.60;1.30;;;;;;;10.84;100.00;101330.81;6197467;28;20050;-76
2022/06/21 04:28:24;;;;;;;2.10;1.42;;;;;;;10.85;100.00;101324.63;6197951;28;20051;-76
2022/06/21 04:31:31;;;;;;;3.35;1.80;;;;;;;10.94;100.00;101328.63;6197045;28;20050;-77
2022/06/21 04:34:39;;;;;;;3.92;2.38;;;;;;;11.00;100.00;101320.47;6197416;28;20054;-77
2022/06/21 04:37:46;;;;;;;2.42;1.77;;;;;;;11.01;100.00;101318.69;6197554;28;20046;-76
2022/06/21 04:40:51;;;;;;;3.38;1.48;;;;;;;11.04;100.00;101305.41;6197246;28;20494;-76
2022/06/21 04:43:58;;;;;;;4.65;2.40;;;;;;;11.07;100.00;101308.72;6197134;28;20054;-76
2022/06/21 04:47:06;;;;;;;5.35;1.83;;;;;;;11.11;100.00;101318.19;6199261;28;20050;-77
2022/06/21 04:50:21;;;;;;;2.75;1.60;;;;;;;11.18;100.00;101327.50;6201727;28;20050;-76
2022/06/21 04:53:29;;;;;;;3.58;2.03;;;;;;;11.15;100.00;101327.66;6203366;28;20046;-77
2022/06/21 04:56:42;;;;;;;2.50;1.70;;;;;;;11.18;100.00;101351.19;6201804;28;20482;-77
2022/06/21 04:59:46;;;;;;;5.07;1.75;;;;;;;11.27;100.00;101351.69;6201695;28;20046;-77
2022/06/21 05:02:52;;;;;;;3.20;1.73;;;;;;;11.31;100.00;101363.75;6201929;28;20050;-77
2022/06/21 05:05:55;;;;;;;4.60;1.63;;;;;;;11.29;100.00;101363.84;6201798;28;20061;-77
2022/06/21 05:08:57;;;;;;;6.65;1.65;;;;;;;11.30;100.00;101369.94;6201510;28;20053;-76
2022/06/21 05:12:03;;;;;;;3.05;1.77;;;;;;;11.33;100.00;101368.03;6201419;28;20050;-76
2022/06/21 05:15:07;;;;;;;7.28;1.88;;;;;;;11.35;100.00;101371.44;6201556;28;20046;-76
2022/06/21 05:18:14;;;;;;;5.55;1.92;;;;;;;11.44;100.00;101380.69;6201480;28;20046;-76
2022/06/21 05:21:26;;;;;;;2.47;1.88;;;;;;;11.47;100.00;101372.66;6207616;28;20058;-76
2022/06/21 05:24:28;;;;;;;2.35;1.80;;;;;;;11.50;100.00;101372.53;6225419;28;20049;-76
2022/06/21 05:27:35;;;;;;;3.85;1.85;;;;;;;11.52;100.00;101380.34;6225459;28;20049;-76
2022/06/21 05:30:43;;;;;;;2.55;1.27;;;;;;;11.57;100.00;101389.72;6224792;28;20057;-77
2022/06/21 05:33:48;;;;;;;2.75;1.98;;;;;;;11.57;100.00;101380.97;6225255;28;20482;-77
2022/06/21 05:36:56;;;;;;;2.65;1.90;;;;;;;11.56;100.00;101380.13;6225202;28;20433;-76
2022/06/21 05:40:01;;;;;;;3.17;2.17;;;;;;;11.58;100.00;101380.91;6225055;28;20053;-76
2022/06/21 05:43:02;;;;;;;4.35;1.92;;;;;;;11.65;100.00;101377.03;6225188;28;20049;-76
2022/06/21 05:46:08;;;;;;;2.67;1.98;;;;;;;11.75;100.00;101376.59;6224903;28;20050;-77
2022/06/21 05:49:21;;;;;;;4.07;2.08;;;;;;;11.82;100.00;101378.03;6225166;28;20053;-76
2022/06/21 05:52:30;;;;;;;7.20;1.85;;;;;;;11.87;100.00;101379.53;6206146;28;20054;-77
2022/06/21 05:55:35;;;;;;;2.80;1.55;;;;;;;11.98;100.00;101383.41;6200180;28;20058;-77
2022/06/21 05:58:41;;;;;;;3.55;2.15;;;;;;;12.07;100.00;101385.59;6200112;28;20062;-77
2022/06/21 06:01:47;;;;;;;3.15;1.60;;;;;;;12.14;100.00;101387.03;6200575;28;20055;-78
2022/06/21 06:04:54;;;;;;;5.40;1.50;;;;;;;12.21;100.00;101392.81;6200155;28;20050;-76
2022/06/21 06:08:01;;;;;;;3.75;1.65;;;;;;;12.25;100.00;101392.59;6200767;28;20042;-77
2022/06/21 06:11:04;;;;;;;4.82;1.63;;;;;;;12.31;100.00;101404.59;6200229;28;20061;-76
2022/06/21 06:14:06;;;;;;;2.17;1.75;;;;;;;12.38;100.00;101401.59;6199983;28;20046;-76
2022/06/21 06:17:17;;;;;;;6.03;1.50;;;;;;;12.44;100.00;101395.16;6200174;28;20511;-77
2022/06/21 06:20:25;;;;;;;9.13;1.65;;;;;;;12.47;100.00;101399.44;6201596;28;20046;-76
2022/06/21 06:23:36;;;;;;;4.82;1.55;;;;;;;12.59;100.00;101404.94;6224294;28;20073;-76
2022/06/21 06:26:40;;;;;;;3.13;1.77;;;;;;;12.67;100.00;101407.16;6224130;28;20050;-76
2022/06/21 06:29:45;;;;;;;2.20;1.35;;;;;;;12.76;100.00;101411.13;6224143;28;20068;-77
2022/06/21 06:32:59;;;;;;;3.80;1.67;;;;;;;12.80;100.00;101408.22;6224300;28;20061;-77
2022/06/21 06:36:05;;;;;;;2.17;0.95;;;;;;;12.88;100.00;101400.78;6223979;28;20050;-77
2022/06/21 06:39:17;;;;;;;2.88;1.45;;;;;;;12.96;100.00;101408.31;6223997;28;20057;-77
2022/06/21 06:42:21;;;;;;;8.15;1.42;;;;;;;13.10;100.00;101397.88;6223938;28;20049;-77
2022/06/21 06:45:28;;;;;;;4.28;1.30;;;;;;;13.25;100.00;101409.41;6223481;28;20046;-77
2022/06/21 06:48:32;;;;;;;4.10;1.20;;;;;;;13.45;100.00;101421.56;6223715;28;20053;-77
2022/06/21 06:51:43;;;;;;;4.95;1.48;;;;;;;13.55;100.00;101417.47;6208989;28;20465;-77
2022/06/21 06:54:52;;;;;;;4.18;0.90;;;;;;;13.64;100.00;101419.59;6198940;28;20057;-77
2022/06/21 06:57:58;;;;;;;9.10;1.20;;;;;;;13.63;100.00;101403.84;6199333;28;20050;-76
2022/06/21 07:01:04;;;;;;;4.32;1.50;;;;;;;13.73;100.00;101412.09;6199094;28;20050;-76
2022/06/21 07:04:09;;;;;;;1.17;0.82;;;;;;;13.74;100.00;101409.38;6198577;28;20453;-76
2022/06/21 07:07:18;;;;;;;1.90;1.17;;;;;;;13.87;100.00;101428.03;6199204;28;20435;-76
2022/06/21 07:10:25;;;;;;;5.13;1.27;;;;;;;13.77;100.00;101422.41;6197616;28;20406;-76
2022/06/21 07:13:28;;;;;;;2.53;0.98;;;;;;;13.76;100.00;101423.31;6198838;28;20533;-77
2022/06/21 07:16:35;;;;;;;5.95;0.90;;;;;;;13.78;100.00;101416.19;6198117;28;20057;-76
2022/06/21 07:19:36;;;;;;;6.28;1.55;;;;;;;13.84;99.49;101421.09;6198609;28;20054;-76
2022/06/21 07:22:37;;;;;;;1.58;0.93;;;;;;;13.87;98.53;101420.94;6199362;28;20050;-77
2022/06/21 07:25:44;;;;;;;2.58;0.80;;;;;;;13.81;98.29;101418.66;6197969;28;20570;-76
2022/06/21 07:28:51;;;;;;;10.40;1.63;;;;;;;13.83;97.76;101419.41;6198266;28;20076;-75
2022/06/21 07:32:02;;;;;;;1.05;0.98;;;;;;;13.86;97.17;101421.03;6198279;28;20058;-77
2022/06/21 07:35:08;;;;;;;2.13;1.00;;;;;;;13.92;97.13;101421.53;6198050;28;20050;-76
2022/06/21 07:38:14;;;;;;;3.60;0.90;;;;;;;14.04;97.77;101414.72;6198054;28;20456;-76
2022/06/21 07:41:23;;;;;;;2.50;0.80;;;;;;;14.25;97.73;101406.47;6197771;28;20113;-76
2022/06/21 07:44:31;;;;;;;3.15;0.68;;;;;;;14.37;94.96;101411.91;6198166;28;20078;-77
2022/06/21 07:47:39;;;;;;;3.65;1.00;;;;;;;14.41;96.29;101415.22;6198291;28;20062;-76
2022/06/21 07:50:46;;;;;;;4.57;0.88;;;;;;;14.39;94.55;101419.75;6198780;28;20050;-76
2022/06/21 07:53:52;;;;;;;2.35;0.93;;;;;;;14.34;95.29;101425.28;6197455;28;20050;-77
2022/06/21 07:56:57;;;;;;;2.30;1.10;;;;;;;14.37;93.58;101425.13;6198047;28;20073;-77
2022/06/21 08:00:06;;;;;;;3.65;1.20;;;;;;;14.44;92.32;101425.59;6197684;28;20054;-75
2022/06/21 08:06:43;;;;;;;3.53;2.25;;;;;;;14.67;91.34;101421.63;6197414;28;20495;-76
2022/06/21 08:09:51;;;;;;;6.18;1.33;;;;;;;14.62;90.56;101426.34;6197630;28;20049;-76
2022/06/21 08:12:55;;;;;;;1.20;0.90;;;;;;;14.58;90.49;101423.06;6198088;28;20058;-76
2022/06/21 08:16:07;;;;;;;2.55;1.00;;;;;;;14.55;90.46;101427.66;6197613;28;20058;-76
2022/06/21 08:19:15;;;;;;;3.63;1.45;;;;;;;14.63;91.86;101430.72;6197819;28;20049;-76
2022/06/21 08:22:20;;;;;;;3.00;1.63;;;;;;;14.74;90.55;101427.41;6202365;28;20407;-75
2022/06/21 08:25:30;;;;;;;2.97;0.77;;;;;;;14.73;89.60;101438.97;6202097;28;20050;-77
2022/06/21 08:28:41;;;;;;;2.95;1.80;;;;;;;14.67;90.81;101435.75;6202654;28;20054;-77
2022/06/21 08:31:48;;;;;;;1.58;1.10;;;;;;;14.72;91.70;101430.16;6202224;28;20046;-76
2022/06/21 08:34:55;;;;;;;1.60;0.82;;;;;;;14.82;91.83;101431.31;6202361;28;20054;-76
2022/06/21 08:38:02;;;;;;;2.00;1.20;;;;;;;14.86;91.15;101424.91;6202308;28;20104;-77
2022/06/21 08:48:58;;;;;;;1.42;0.80;;;;;;;14.79;88.18;101412.97;6196743;28;20082;-76
2022/06/21 08:52:46;;;;;;;1.92;1.00;;;;;;;14.88;89.63;101409.75;6222935;28;20050;-75
2022/06/21 08:55:56;;;;;;;8.38;1.25;;;;;;;15.00;89.41;101404.69;6219911;28;20057;-78
2022/06/21 08:59:03;;;;;;;;;;;;;;;15.01;89.13;101412.53;6226811;28;20042;-75
2022/06/21 09:02:17;;;;;;;9.15;1.23;;;;;;;14.99;89.40;101401.19;6226079;28;19921;-78
2022/06/21 09:05:33;;;;;;;3.78;0.95;;;;;;;15.07;90.30;101409.47;6226314;28;20406;-76
2022/06/21 09:08:47;;;;;;;1.60;1.00;;;;;;;15.17;89.13;101410.66;6225046;28;20046;-78
2022/06/21 09:11:58;;;;;;;3.47;1.15;;;;;;;15.23;87.42;101397.00;6216180;28;20054;-75
2022/06/21 09:15:15;;;;;;;1.73;1.20;;;;;;;15.33;85.58;101393.78;6217230;28;20061;-75
2022/06/21 09:18:36;;;;;;;3.22;0.90;;;;;;;15.31;83.79;101395.69;6215315;28;20046;-79
2022/06/21 09:21:48;;;;;;;1.88;0.90;;;;;;;15.34;82.07;101400.78;6222319;28;20075;-76
2022/06/21 09:24:57;;;;;;;1.75;0.90;;;;;;;15.45;82.25;101406.25;6223285;28;20054;-78
2022/06/21 09:28:06;;;;;;;5.80;1.35;;;;;;;15.46;82.92;101400.84;6209606;28;20419;-76
2022/06/21 09:31:16;;;;;;;5.65;1.17;;;;;;;15.64;82.87;101390.06;6200581;28;20125;-74
2022/06/21 09:34:29;;;;;;;2.05;1.02;;;;;;;15.77;82.40;101395.44;6199958;28;20046;-79
2022/06/21 09:37:41;;;;;;;9.10;1.48;;;;;;;15.84;81.93;101384.31;6200777;28;20054;-77
2022/06/21 09:40:48;;;;;;;2.42;1.13;;;;;;;15.99;81.83;101390.44;6213321;28;20050;-75
2022/06/21 09:44:02;;;;;;;2.42;1.20;;;;;;;16.06;81.40;101397.03;6224508;28;20427;-75
2022/06/21 09:47:13;;;;;;;1.58;1.00;;;;;;;16.09;80.06;101388.03;6225231;28;20050;-76
2022/06/21 09:50:24;;;;;;;3.92;1.10;;;;;;;16.14;78.02;101386.75;6222987;28;20418;-78
2022/06/21 09:53:39;;;;;;;4.00;1.33;;;;;;;16.03;79.38;101383.97;6224908;28;20053;-77
2022/06/21 09:56:45;;;;;;;1.65;0.70;;;;;;;16.13;80.28;101376.28;6224795;28;20056;-75
2022/06/21 09:59:54;;;;;;;3.00;1.02;;;;;;;16.32;79.05;101373.22;6224324;28;20050;-76
2022/06/21 10:03:13;;;;;;;2.15;1.08;;;;;;;16.39;78.88;101367.38;6224470;28;20065;-74
2022/06/21 10:06:36;;;;;;;4.33;1.23;;;;;;;16.47;78.83;101364.22;6224412;28;20053;-77
2022/06/21 10:09:50;;;;;;;1.90;1.20;;;;;;;16.63;76.35;101353.44;6224251;28;20421;-76
2022/06/21 10:13:01;;;;;;;2.42;1.13;;;;;;;16.80;79.16;101344.31;6224347;28;20549;-76
2022/06/21 10:16:18;;;;;;;2.55;1.00;;;;;;;16.90;77.06;101343.56;6224417;28;20060;-76
2022/06/21 10:19:36;;;;;;;2.65;1.17;;;;;;;17.05;73.81;101336.31;6222360;28;20505;-76
2022/06/21 10:22:48;;;;;;;1.15;0.70;;;;;;;17.11;75.33;101343.84;6224185;28;20050;-75
2022/06/21 10:26:04;;;;;;;1.75;1.23;;;;;;;17.34;74.00;101336.03;6223632;28;20521;-75
2022/06/21 10:29:33;;;;;;;3.70;1.10;;;;;;;17.52;71.75;101329.38;6224312;28;20046;-75
2022/06/21 10:32:54;;;;;;;3.00;1.40;;;;;;;17.50;69.90;101332.16;6223794;28;20050;-75
2022/06/21 10:36:08;;;;;;;1.50;0.85;;;;;;;17.40;67.19;101328.47;6223313;28;20395;-75
2022/06/21 10:39:35;;;;;;;1.55;0.70;;;;;;;17.45;70.16;101331.66;6223812;28;20045;-76
2022/06/21 10:43:01;;;;;;;3.13;0.90;;;;;;;17.72;69.54;101327.91;6223191;28;20056;-75
2022/06/21 10:46:09;;;;;;;2.33;0.77;;;;;;;17.88;69.65;101328.50;6223449;28;20486;-76
2022/06/21 10:49:46;;;;;;;2.50;1.67;;;;;;;17.90;68.06;101323.06;6222061;28;20042;-76
2022/06/21 10:53:03;;;;;;;4.22;0.95;;;;;;;18.07;68.72;101306.66;6223588;28;20046;-76
2022/06/21 11:03:36;;;;;;;1.10;0.70;;;;;;;18.84;62.87;101290.94;6223365;28;20124;-75
2022/06/21 11:06:46;;;;;;;1.77;1.00;;;;;;;18.97;63.52;101281.00;6208623;28;20053;-77
2022/06/21 11:09:52;;;;;;;2.22;0.75;;;;;;;19.09;60.86;101281.88;6208038;28;20514;-76
2022/06/21 11:13:03;;;;;;;1.20;0.75;;;;;;;19.16;62.01;101275.03;6216752;28;20414;-77
2022/06/21 11:16:12;;;;;;;1.60;0.85;;;;;;;19.31;60.42;101277.47;6222560;28;20052;-77
2022/06/21 11:19:22;;;;;;;2.58;0.80;;;;;;;19.66;60.59;101285.22;6221262;28;20243;-77
2022/06/21 11:22:34;;;;;;;1.75;0.80;;;;;;;19.97;59.04;101279.03;6222441;28;20061;-76
2022/06/21 11:25:47;;;;;;;1.30;0.88;;;;;;;19.98;58.36;101277.19;6222594;28;20050;-76
2022/06/21 11:28:58;;;;;;;4.75;0.80;;;;;;;20.01;57.25;101277.78;6222949;28;20042;-76
2022/06/21 11:32:08;;;;;;;1.15;0.60;;;;;;;20.55;56.58;101264.38;6222624;28;20050;-76
2022/06/21 11:35:22;;;;;;;0.45;0.45;;;;;;;20.84;54.17;101259.97;6222407;28;20055;-77
2022/06/21 11:38:43;;;;;;;3.80;0.75;;;;;;;21.16;51.03;101259.75;6223075;28;20050;-76
2022/06/21 11:42:08;;;;;;;2.05;0.55;;;;;;;21.25;50.34;101261.59;6222117;28;20441;-77
2022/06/21 11:45:32;;;;;;;0.65;0.60;;;;;;;21.43;48.17;101264.47;6222193;28;20141;-76
2022/06/21 11:48:51;;;;;;;0.85;0.60;;;;;;;21.65;47.23;101254.50;6217232;28;20049;-77
2022/06/21 11:52:25;;;;;;;1.30;0.93;;;;;;;22.00;47.75;101252.06;6222281;28;20057;-76
2022/06/21 11:55:33;;;;;;;1.20;0.70;;;;;;;22.12;45.13;101247.44;6221888;28;20053;-76
2022/06/21 11:58:43;;;;;;;2.33;0.65;;;;;;;21.93;45.16;101242.06;6222215;28;20607;-76
2022/06/21 12:01:52;;;;;;;3.20;0.88;;;;;;;21.63;44.30;101235.91;6221989;28;20057;-76
2022/06/21 12:05:00;;;;;;;3.25;0.82;;;;;;;22.06;45.89;101236.41;6221940;28;20081;-76
2022/06/21 12:08:09;;;;;;;1.10;0.65;;;;;;;22.40;44.61;101226.06;6222327;28;20120;-76
2022/06/21 12:11:21;;;;;;;1.30;0.50;;;;;;;22.44;43.91;101224.78;6221847;28;20060;-77
2022/06/21 12:14:36;;;;;;;1.13;0.68;;;;;;;22.72;42.06;101226.47;6221848;28;20056;-77
2022/06/21 12:17:48;;;;;;;1.95;0.70;;;;;;;22.78;41.95;101214.31;6222382;28;20045;-77
2022/06/21 12:20:53;;;;;;;1.50;0.40;;;;;;;23.13;43.26;101213.56;6220199;28;20076;-77
2022/06/21 12:23:59;;;;;;;3.72;0.77;;;;;;;23.16;41.50;101215.09;6221815;28;20053;-77
2022/06/21 12:27:00;;;;;;;1.88;0.60;;;;;;;23.29;41.70;101215.56;6222018;28;20540;-77
2022/06/21 12:30:14;;;;;;;1.90;0.90;;;;;;;23.15;41.53;101203.53;6221668;28;20049;-77
2022/06/21 12:33:20;;;;;;;0.93;0.70;;;;;;;23.43;40.34;101209.66;6221911;28;20109;-77
2022/06/21 12:36:34;;;;;;;0.57;0.57;;;;;;;23.34;40.85;101207.88;6221798;28;20046;-77
2022/06/21 12:39:40;;;;;;;1.25;0.50;;;;;;;23.60;39.74;101201.75;6221821;28;20050;-77
2022/06/21 12:42:55;;;;;;;0.82;0.55;;;;;;;23.90;38.54;101197.81;6222106;28;20505;-78
2022/06/21 12:46:06;;;;;;;0.80;0.60;;;;;;;23.95;37.04;101192.81;6221599;28;20054;-77
2022/06/21 12:49:31;;;;;;;0.75;0.47;;;;;;;23.88;34.45;101184.53;6220107;28;20435;-77
2022/06/21 12:52:39;;;;;;;2.60;0.63;;;;;;;22.90;35.84;101180.16;6221620;28;20050;-77
2022/06/21 12:55:49;;;;;;;1.40;0.40;;;;;;;23.14;38.63;101177.72;6222214;28;20054;-77
2022/06/21 12:59:16;;;;;;;2.85;0.60;;;;;;;23.64;36.74;101177.16;6223019;28;20308;-77
2022/06/21 13:02:35;;;;;;;3.28;0.70;;;;;;;23.76;36.72;101170.53;6221621;28;20141;-77
2022/06/21 13:05:45;;;;;;;0.40;0.40;;;;;;;24.03;35.64;101172.22;6221960;28;20061;-77
2022/06/21 13:09:01;;;;;;;1.40;0.82;;;;;;;24.34;36.26;101171.69;6224729;28;20057;-77
2022/06/21 13:12:18;;;;;;;1.25;0.52;;;;;;;24.10;35.28;101161.69;6226739;28;20421;-77
2022/06/21 13:15:36;;;;;;;3.88;0.80;;;;;;;24.15;34.57;101162.03;6226544;28;20050;-77
2022/06/21 13:18:56;;;;;;;0.70;0.35;;;;;;;24.11;35.41;101162.50;6224581;28;20080;-77
2022/06/21 13:22:21;;;;;;;1.20;0.50;;;;;;;24.28;35.90;101156.22;6225719;28;20057;-78
2022/06/21 13:25:39;;;;;;;0.65;0.38;;;;;;;24.67;37.06;101153.06;6225978;28;20050;-77
2022/06/21 13:28:56;;;;;;;1.23;0.60;;;;;;;24.27;35.74;101150.03;6226159;28;20052;-77
2022/06/21 13:32:03;;;;;;;0.73;0.73;;;;;;;24.21;36.53;101145.31;6225959;28;20441;-77
2022/06/21 13:35:18;;;;;;;0.80;0.60;;;;;;;23.96;36.06;101144.31;6225450;28;20068;-77
2022/06/21 13:38:26;;;;;;;0.50;0.50;;;;;;;23.47;37.37;101130.53;6226067;28;20049;-77
2022/06/21 13:44:59;;;;;;;0.85;0.60;;;;;;;23.21;37.74;101126.97;6225425;28;20128;-77
2022/06/21 13:48:05;;;;;;;0.82;0.68;;;;;;;23.15;37.20;101132.97;6223932;28;20053;-77
2022/06/21 13:51:26;;;;;;;2.05;0.57;;;;;;;23.35;39.38;101125.59;6225431;28;20054;-77
2022/06/21 13:54:36;;;;;;;1.38;0.70;;;;;;;23.86;36.98;101114.06;6225353;28;20050;-78
2022/06/21 13:57:51;;;;;;;1.58;0.60;;;;;;;24.09;37.11;101119.72;6225959;28;20050;-77
2022/06/21 14:01:03;;;;;;;4.22;1.52;;;;;;;23.73;37.26;101119.03;6225007;28;20042;-77
2022/06/21 14:04:14;;;;;;;1.13;0.47;;;;;;;23.38;35.35;101120.75;6225212;28;20054;-78
2022/06/21 14:07:26;;;;;;;0.60;0.40;;;;;;;23.52;34.26;101119.34;6225563;28;20069;-78
2022/06/21 14:10:37;;;;;;;0.47;0.40;;;;;;;23.34;37.84;101135.47;6224989;28;20065;-77
2022/06/21 14:13:46;;;;;;;0.77;0.60;;;;;;;23.09;36.60;101123.72;6225177;28;20437;-77
2022/06/21 14:16:55;;;;;;;0.57;0.45;;;;;;;23.42;37.89;101130.16;6225213;28;20050;-77
2022/06/21 14:20:06;;;;;;;1.70;0.73;;;;;;;23.00;36.11;101119.25;6222817;28;20541;-77
2022/06/21 14:23:15;;;;;;;2.00;0.60;;;;;;;22.91;36.87;101112.16;6225094;28;20054;-76
2022/06/21 14:26:24;;;;;;;2.60;0.50;;;;;;;23.11;35.60;101113.66;6224157;28;20053;-77
2022/06/21 14:29:33;;;;;;;1.05;0.40;;;;;;;23.22;37.64;101113.44;6224081;28;20057;-78
2022/06/21 14:32:42;;;;;;;0.65;0.50;;;;;;;22.95;36.84;101119.72;6224828;28;20046;-76
2022/06/21 14:35:47;;;;;;;3.50;0.70;;;;;;;22.72;38.22;101123.81;6225333;28;20046;-77
2022/06/21 14:38:56;;;;;;;0.40;0.40;;;;;;;22.96;37.59;101113.38;6225351;28;20046;-77
2022/06/21 14:42:13;;;;;;;3.53;0.73;;;;;;;22.97;36.39;101100.78;6224634;28;20049;-77
2022/06/21 14:45:20;;;;;;;0.85;0.57;;;;;;;22.65;38.83;101104.81;6225458;28;20050;-77
2022/06/21 14:48:32;;;;;;;1.17;0.50;;;;;;;22.53;39.71;101103.38;6223757;28;20065;-77
2022/06/21 14:51:39;;;;;;;0.82;0.70;;;;;;;22.48;40.20;101098.47;6225096;28;20050;-77
2022/06/21 14:54:59;;;;;;;1.00;0.90;;;;;;;22.28;40.41;101100.38;6225183;28;20045;-75
2022/06/21 14:58:16;;;;;;;1.02;0.60;;;;;;;22.47;40.51;101094.06;6223935;28;20490;-76